createdAt,value
2018-05-17T00:01:44.541Z,99.90
2018-05-17T00:04:12.037Z,99.90
2018-05-17T00:06:39.560Z,99.90
2018-05-17T00:09:07.118Z,99.90
2018-05-17T00:11:35.356Z,99.90
2018-05-17T00:14:02.819Z,99.90
2018-05-17T00:16:30.315Z,99.90
2018-05-17T00:18:58.575Z,99.90
2018-05-17T00:21:26.149Z,99.90
2018-05-17T00:23:54.382Z,99.90
2018-05-17T00:26:21.887Z,99.90
2018-05-17T00:28:50.443Z,99.90
2018-05-17T00:31:17.932Z,99.90
2018-05-17T00:33:46.163Z,99.90
2018-05-17T00:36:13.649Z,99.90
2018-05-17T00:38:41.105Z,99.90
2018-05-17T00:41:09.365Z,99.90
2018-05-17T00:43:36.834Z,99.90
2018-05-17T00:46:05.107Z,99.90
2018-05-17T00:48:32.667Z,99.90
2018-05-17T00:51:00.270Z,99.90
2018-05-17T00:53:31.721Z,99.90
2018-05-17T00:55:59.147Z,99.90
2018-05-17T00:58:27.407Z,99.90
2018-05-17T01:00:56.411Z,99.90
2018-05-17T01:03:24.722Z,99.90
2018-05-17T01:05:52.297Z,99.90
2018-05-17T01:08:20.556Z,99.90
2018-05-17T01:10:49.164Z,99.90
2018-05-17T01:13:16.627Z,99.90
2018-05-17T01:15:44.157Z,99.90
2018-05-17T01:18:11.621Z,99.90
2018-05-17T01:20:39.171Z,99.90
2018-05-17T01:23:06.674Z,99.90
2018-05-17T01:25:34.163Z,99.90
2018-05-17T01:28:02.444Z,99.90
2018-05-17T01:30:30.673Z,99.90
2018-05-17T01:32:58.247Z,99.90
2018-05-17T01:35:25.707Z,99.90
2018-05-17T01:38:04.998Z,99.90
2018-05-17T01:40:32.498Z,99.90
2018-05-17T01:42:59.988Z,99.90
2018-05-17T01:45:28.221Z,99.90
2018-05-17T01:47:55.709Z,99.90
2018-05-17T01:50:23.944Z,99.90
2018-05-17T01:52:51.536Z,99.90
2018-05-17T01:55:19.763Z,99.90
2018-05-17T01:57:47.248Z,99.90
2018-05-17T02:00:14.782Z,99.90
2018-05-17T02:02:42.208Z,99.90
2018-05-17T02:05:09.681Z,99.90
2018-05-17T02:07:37.163Z,99.90
2018-05-17T02:10:04.794Z,99.90
2018-05-17T02:12:32.284Z,99.90
2018-05-17T02:14:59.747Z,99.90
2018-05-17T02:17:27.323Z,99.90
2018-05-17T02:19:54.883Z,99.90
2018-05-17T02:22:23.882Z,99.90
2018-05-17T02:24:51.441Z,99.90
2018-05-17T02:27:19.685Z,99.90
2018-05-17T02:29:47.215Z,99.90
2018-05-17T02:32:14.684Z,99.90
2018-05-17T02:34:42.169Z,99.90
2018-05-17T02:37:09.749Z,99.90
2018-05-17T02:39:37.303Z,99.90
2018-05-17T02:42:05.629Z,99.90
2018-05-17T02:44:34.104Z,99.90
2018-05-17T02:47:01.663Z,99.90
2018-05-17T02:49:29.223Z,99.90
2018-05-17T02:51:56.795Z,99.90
2018-05-17T02:54:24.286Z,99.90
2018-05-17T02:56:51.755Z,99.90
2018-05-17T02:59:19.240Z,99.90
2018-05-17T03:01:46.708Z,99.90
2018-05-17T03:04:14.230Z,99.90
2018-05-17T03:06:41.690Z,99.90
2018-05-17T03:09:10.043Z,99.90
2018-05-17T03:11:37.513Z,99.90
2018-05-17T03:14:05.041Z,99.90
2018-05-17T03:16:32.516Z,99.90
2018-05-17T03:19:00.003Z,99.90
2018-05-17T03:21:28.269Z,99.90
2018-05-17T03:23:55.769Z,99.90
2018-05-17T03:26:23.329Z,99.90
2018-05-17T03:28:50.846Z,99.90
2018-05-17T03:31:19.165Z,99.90
2018-05-17T03:33:46.828Z,99.90
2018-05-17T03:36:14.340Z,99.90
2018-05-17T03:38:42.662Z,99.90
2018-05-17T03:41:10.162Z,99.90
2018-05-17T03:43:37.628Z,99.90
2018-05-17T03:46:05.138Z,99.90
2018-05-17T03:48:32.795Z,99.90
2018-05-17T03:51:00.275Z,99.90
2018-05-17T03:53:27.743Z,99.90
2018-05-17T03:55:55.238Z,99.90
2018-05-17T03:58:23.531Z,99.90
2018-05-17T04:01:02.864Z,99.90
2018-05-17T04:03:42.630Z,99.90
2018-05-17T04:06:22.277Z,99.90
2018-05-17T04:08:49.763Z,99.90
2018-05-17T04:11:17.247Z,99.90
2018-05-17T04:13:45.524Z,99.90
2018-05-17T04:16:13.854Z,99.90
2018-05-17T04:18:41.405Z,99.90
2018-05-17T04:21:08.963Z,99.90
2018-05-17T04:23:36.447Z,99.90
2018-05-17T04:26:03.979Z,99.90
2018-05-17T04:28:31.547Z,99.90
2018-05-17T04:30:59.153Z,99.90
2018-05-17T04:33:26.708Z,99.90
2018-05-17T04:35:54.198Z,99.90
2018-05-17T04:38:21.669Z,99.90
2018-05-17T04:40:49.225Z,99.90
2018-05-17T04:43:16.789Z,99.90
2018-05-17T04:45:44.352Z,99.90
2018-05-17T04:48:11.867Z,99.90
2018-05-17T04:50:40.176Z,99.90
2018-05-17T04:53:07.790Z,99.90
2018-05-17T04:55:35.243Z,99.90
2018-05-17T04:58:02.750Z,99.90
2018-05-17T05:00:30.309Z,99.90
2018-05-17T05:02:58.254Z,99.90
2018-05-17T05:05:25.712Z,99.90
2018-05-17T05:07:53.964Z,99.90
2018-05-17T05:10:23.092Z,99.90
2018-05-17T05:12:50.593Z,99.90
2018-05-17T05:15:18.064Z,99.90
2018-05-17T05:17:45.550Z,99.90
2018-05-17T05:20:13.783Z,99.90
2018-05-17T05:22:41.312Z,99.90
2018-05-17T05:25:08.777Z,99.90
2018-05-17T05:27:36.260Z,99.90
2018-05-17T05:30:03.790Z,99.90
2018-05-17T05:32:31.273Z,99.90
2018-05-17T05:34:58.904Z,99.90
2018-05-17T05:37:26.522Z,99.90
2018-05-17T05:39:54.689Z,99.90
2018-05-17T05:42:22.185Z,99.90
2018-05-17T05:44:49.663Z,99.90
2018-05-17T05:47:17.212Z,99.90
2018-05-17T05:49:44.772Z,99.90
2018-05-17T05:52:12.296Z,99.90
2018-05-17T05:54:40.602Z,99.90
2018-05-17T05:57:08.065Z,99.90
2018-05-17T05:59:35.578Z,99.90
2018-05-17T06:02:03.057Z,99.90
2018-05-17T06:04:31.360Z,99.90
2018-05-17T06:06:58.835Z,99.90
2018-05-17T06:09:26.320Z,99.90
2018-05-17T06:11:53.893Z,99.90
2018-05-17T06:14:22.150Z,99.90
2018-05-17T06:16:49.768Z,99.90
2018-05-17T06:19:17.254Z,99.90
2018-05-17T06:21:44.780Z,99.90
2018-05-17T06:24:12.329Z,99.90
2018-05-17T06:26:39.793Z,99.90
2018-05-17T06:29:07.528Z,99.90
2018-05-17T06:31:35.182Z,99.60
2018-05-17T06:34:03.444Z,99.40
2018-05-17T06:36:31.012Z,99.30
2018-05-17T06:38:58.571Z,99.20
2018-05-17T06:41:26.032Z,99.30
2018-05-17T06:43:54.429Z,99.30
2018-05-17T06:46:21.832Z,99.30
2018-05-17T06:48:49.320Z,99.10
2018-05-17T06:51:16.882Z,99.20
2018-05-17T06:53:44.483Z,99.00
2018-05-17T06:56:11.965Z,99.10
2018-05-17T06:58:39.457Z,99.10
2018-05-17T07:01:07.040Z,99.00
2018-05-17T07:03:34.484Z,99.10
2018-05-17T07:06:02.785Z,98.60
2018-05-17T07:08:30.273Z,98.50
2018-05-17T07:10:57.763Z,98.70
2018-05-17T07:13:25.300Z,98.60
2018-05-17T07:15:52.825Z,98.90
2018-05-17T07:18:20.545Z,98.80
2018-05-17T07:20:47.863Z,98.40
2018-05-17T07:23:15.362Z,98.70
2018-05-17T07:25:43.625Z,98.60
2018-05-17T07:28:11.091Z,98.50
2018-05-17T07:30:38.659Z,98.30
2018-05-17T07:33:06.906Z,98.50
2018-05-17T07:35:34.402Z,98.50
2018-05-17T07:38:02.628Z,98.40
2018-05-17T07:40:30.109Z,98.30
2018-05-17T07:42:57.564Z,97.90
2018-05-17T07:45:25.888Z,97.90
2018-05-17T07:47:53.352Z,97.50
2018-05-17T07:50:20.852Z,97.40
2018-05-17T07:52:49.077Z,97.80
2018-05-17T07:55:16.558Z,97.80
2018-05-17T07:57:44.034Z,97.80
2018-05-17T08:00:11.501Z,97.80
2018-05-17T08:02:38.978Z,97.50
2018-05-17T08:05:07.330Z,97.00
2018-05-17T08:07:34.782Z,97.00
2018-05-17T08:10:02.303Z,96.90
2018-05-17T08:12:29.775Z,96.90
2018-05-17T08:14:57.323Z,96.80
2018-05-17T08:17:24.883Z,96.90
2018-05-17T08:19:52.396Z,96.50
2018-05-17T08:22:19.952Z,96.80
2018-05-17T08:24:47.419Z,97.20
2018-05-17T08:27:15.674Z,96.10
2018-05-17T08:29:43.144Z,96.00
2018-05-17T08:32:13.135Z,96.10
2018-05-17T08:34:40.624Z,96.10
2018-05-17T08:37:08.887Z,95.70
2018-05-17T08:39:36.354Z,96.00
2018-05-17T08:42:04.620Z,96.20
2018-05-17T08:44:32.225Z,95.80
2018-05-17T08:46:59.718Z,96.00
2018-05-17T08:49:27.187Z,95.80
2018-05-17T08:51:54.805Z,95.70
2018-05-17T08:54:22.351Z,95.10
2018-05-17T08:56:49.817Z,95.20
2018-05-17T08:59:17.340Z,95.20
2018-05-17T09:01:45.574Z,95.30
2018-05-17T09:04:13.063Z,95.20
2018-05-17T09:06:42.047Z,94.70
2018-05-17T09:09:09.531Z,94.70
2018-05-17T09:11:37.767Z,94.80
2018-05-17T09:14:05.283Z,94.80
2018-05-17T09:16:32.812Z,94.60
2018-05-17T09:19:00.295Z,94.60
2018-05-17T09:21:27.759Z,94.60
2018-05-17T09:23:55.235Z,94.60
2018-05-17T09:26:22.697Z,94.90
2018-05-17T09:28:50.186Z,94.90
2018-05-17T09:31:17.796Z,94.50
2018-05-17T09:33:45.271Z,94.40
2018-05-17T09:36:12.738Z,94.30
2018-05-17T09:38:40.225Z,94.40
2018-05-17T09:41:07.692Z,94.20
2018-05-17T09:43:35.950Z,94.00
2018-05-17T09:46:03.407Z,93.90
2018-05-17T09:48:30.903Z,94.10
2018-05-17T09:50:58.376Z,93.80
2018-05-17T09:53:25.882Z,93.90
2018-05-17T09:55:54.126Z,93.50
2018-05-17T09:58:21.729Z,93.40
2018-05-17T10:00:49.199Z,93.60
2018-05-17T10:03:17.470Z,93.10
2018-05-17T10:05:45.720Z,93.10
2018-05-17T10:08:13.232Z,93.10
2018-05-17T10:10:40.794Z,92.90
2018-05-17T10:13:08.280Z,93.00
2018-05-17T10:15:35.795Z,92.70
2018-05-17T10:18:03.352Z,92.50
2018-05-17T10:20:30.836Z,92.80
2018-05-17T10:22:58.374Z,92.60
2018-05-17T10:25:25.875Z,92.50
2018-05-17T10:27:53.400Z,92.30
2018-05-17T10:30:20.923Z,92.10
2018-05-17T10:32:49.153Z,92.40
2018-05-17T10:35:16.695Z,92.40
2018-05-17T10:37:44.207Z,92.50
2018-05-17T10:40:14.570Z,92.50
2018-05-17T10:42:42.101Z,92.70
2018-05-17T10:45:10.411Z,92.60
2018-05-17T10:47:38.031Z,92.60
2018-05-17T10:50:05.515Z,92.30
2018-05-17T10:52:32.983Z,92.30
2018-05-17T10:55:00.506Z,92.20
2018-05-17T10:57:27.967Z,92.30
2018-05-17T10:59:56.289Z,92.50
2018-05-17T11:02:23.769Z,92.20
2018-05-17T11:04:51.228Z,92.10
2018-05-17T11:07:18.715Z,92.10
2018-05-17T11:09:46.166Z,91.60
2018-05-17T11:12:13.708Z,92.10
2018-05-17T11:14:41.218Z,92.00
2018-05-17T11:17:08.645Z,92.40
2018-05-17T11:19:36.925Z,92.80
2018-05-17T11:22:05.194Z,92.50
2018-05-17T11:24:32.653Z,92.50
2018-05-17T11:27:00.930Z,92.40
2018-05-17T11:29:29.199Z,92.20
2018-05-17T11:31:56.699Z,92.10
2018-05-17T11:34:24.177Z,92.30
2018-05-17T11:36:51.665Z,92.20
2018-05-17T11:39:20.627Z,91.70
2018-05-17T11:41:48.116Z,91.70
2018-05-17T11:44:16.356Z,91.40
2018-05-17T11:46:43.846Z,91.30
2018-05-17T11:49:11.351Z,90.70
2018-05-17T11:51:38.823Z,90.80
2018-05-17T11:54:06.288Z,90.60
2018-05-17T11:56:33.767Z,90.00
2018-05-17T11:59:01.232Z,88.60
2018-05-17T12:01:29.522Z,88.40
2018-05-17T12:03:56.976Z,88.30
2018-05-17T12:06:24.467Z,89.00
2018-05-17T12:08:51.990Z,89.20
2018-05-17T12:11:19.448Z,87.10
2018-05-17T12:13:47.704Z,87.70
2018-05-17T12:16:15.169Z,87.20
2018-05-17T12:18:42.687Z,86.30
2018-05-17T12:21:10.151Z,84.80
2018-05-17T12:23:37.643Z,85.30
2018-05-17T12:26:05.107Z,84.80
2018-05-17T12:28:32.591Z,83.90
2018-05-17T12:31:00.054Z,84.70
2018-05-17T12:33:27.527Z,84.80
2018-05-17T12:35:55.001Z,86.60
2018-05-17T12:38:22.477Z,87.80
2018-05-17T12:40:49.955Z,88.60
2018-05-17T12:43:18.198Z,89.30
2018-05-17T12:45:45.668Z,89.20
2018-05-17T12:48:13.142Z,89.30
2018-05-17T12:50:41.434Z,88.20
2018-05-17T12:53:09.691Z,86.00
2018-05-17T12:55:37.167Z,85.90
2018-05-17T12:58:05.469Z,84.10
2018-05-17T13:00:32.935Z,83.90
2018-05-17T13:03:00.436Z,82.00
2018-05-17T13:05:27.929Z,80.90
2018-05-17T13:07:55.414Z,80.60
2018-05-17T13:10:22.876Z,81.80
2018-05-17T13:12:50.360Z,81.30
2018-05-17T13:15:17.827Z,82.10
2018-05-17T13:17:45.298Z,81.70
2018-05-17T13:20:13.588Z,82.80
2018-05-17T13:22:41.127Z,82.80
2018-05-17T13:25:09.378Z,81.90
2018-05-17T13:27:36.858Z,81.80
2018-05-17T13:30:05.147Z,82.50
2018-05-17T13:32:33.383Z,82.50
2018-05-17T13:35:00.858Z,83.00
2018-05-17T13:37:28.533Z,82.90
2018-05-17T13:39:57.079Z,82.50
2018-05-17T13:42:24.535Z,82.50
2018-05-17T13:44:52.119Z,80.60
2018-05-17T13:47:19.680Z,80.30
2018-05-17T13:49:47.288Z,79.30
2018-05-17T13:52:14.765Z,79.20
2018-05-17T13:54:42.255Z,78.80
2018-05-17T13:57:09.819Z,80.20
2018-05-17T13:59:37.300Z,81.10
2018-05-17T14:02:04.772Z,81.60
2018-05-17T14:04:32.291Z,81.50
2018-05-17T14:06:59.789Z,81.80
2018-05-17T14:09:27.300Z,81.70
2018-05-17T14:11:54.768Z,81.20
2018-05-17T14:14:22.322Z,80.90
2018-05-17T14:16:49.897Z,79.70
2018-05-17T14:19:18.138Z,77.40
2018-05-17T14:21:45.731Z,77.30
2018-05-17T14:24:13.981Z,73.60
2018-05-17T14:26:41.462Z,73.50
2018-05-17T14:29:09.702Z,70.20
2018-05-17T14:31:37.241Z,70.10
2018-05-17T14:34:05.440Z,70.50
2018-05-17T14:36:32.957Z,71.00
2018-05-17T14:39:01.208Z,70.70
2018-05-17T14:41:29.491Z,68.00
2018-05-17T14:43:57.729Z,67.80
2018-05-17T14:46:25.209Z,67.60
2018-05-17T14:48:53.523Z,66.50
2018-05-17T14:51:21.007Z,66.40
2018-05-17T14:53:48.534Z,66.70
2018-05-17T14:56:16.026Z,63.40
2018-05-17T14:58:43.504Z,56.10
2018-05-17T15:01:10.994Z,55.60
2018-05-17T15:03:38.468Z,57.30
2018-05-17T15:06:05.968Z,57.60
2018-05-17T15:08:33.636Z,56.30
2018-05-17T15:11:01.830Z,57.00
2018-05-17T15:13:29.295Z,57.40
2018-05-17T15:15:56.776Z,54.80
2018-05-17T15:18:24.251Z,55.60
2018-05-17T15:20:51.717Z,57.30
2018-05-17T15:23:19.208Z,58.10
2018-05-17T15:25:47.470Z,55.80
2018-05-17T15:28:14.954Z,55.30
2018-05-17T15:30:43.187Z,48.60
2018-05-17T15:33:10.760Z,48.50
2018-05-17T15:35:38.325Z,47.40
2018-05-17T15:38:05.863Z,48.90
2018-05-17T15:40:33.351Z,48.10
2018-05-17T15:43:00.895Z,49.20
2018-05-17T15:45:29.221Z,46.10
2018-05-17T15:47:56.699Z,42.10
2018-05-17T15:50:24.175Z,40.60
2018-05-17T15:52:51.694Z,38.80
2018-05-17T15:55:19.253Z,38.40
2018-05-17T15:57:46.725Z,38.50
2018-05-17T16:00:14.203Z,37.10
2018-05-17T16:02:41.783Z,38.10
2018-05-17T16:05:09.391Z,39.70
2018-05-17T16:07:36.943Z,42.80
2018-05-17T16:10:04.730Z,42.90
2018-05-17T16:12:32.289Z,41.30
2018-05-17T16:14:59.913Z,43.70
2018-05-17T16:17:27.287Z,43.20
2018-05-17T16:19:54.853Z,47.00
2018-05-17T16:22:22.359Z,53.10
2018-05-17T16:24:49.861Z,59.20
2018-05-17T16:27:17.364Z,62.00
2018-05-17T16:29:44.878Z,67.50
2018-05-17T16:32:12.450Z,71.10
2018-05-17T16:34:39.989Z,70.80
2018-05-17T16:37:07.658Z,72.10
2018-05-17T16:39:35.145Z,73.30
2018-05-17T16:42:02.605Z,75.00
2018-05-17T16:44:30.812Z,75.90
2018-05-17T16:47:00.254Z,76.60
2018-05-17T16:49:27.761Z,76.50
2018-05-17T16:51:55.329Z,76.90
2018-05-17T16:54:23.687Z,77.50
2018-05-17T16:56:51.074Z,77.70
2018-05-17T16:59:19.314Z,79.10
2018-05-17T17:01:46.834Z,79.10
2018-05-17T17:04:14.404Z,79.10
2018-05-17T17:06:41.820Z,79.40
2018-05-17T17:09:10.080Z,80.30
2018-05-17T17:11:37.639Z,80.30
2018-05-17T17:14:05.115Z,80.00
2018-05-17T17:16:33.345Z,80.10
2018-05-17T17:19:00.808Z,79.90
2018-05-17T17:21:28.518Z,81.00
2018-05-17T17:23:56.805Z,80.50
2018-05-17T17:26:25.028Z,81.30
2018-05-17T17:28:52.500Z,81.20
2018-05-17T17:31:19.979Z,81.50
2018-05-17T17:33:48.226Z,82.30
2018-05-17T17:36:15.828Z,82.40
2018-05-17T17:38:43.296Z,83.00
2018-05-17T17:41:10.857Z,83.10
2018-05-17T17:43:38.380Z,83.80
2018-05-17T17:46:06.625Z,84.10
2018-05-17T17:48:34.135Z,84.00
2018-05-17T17:51:01.611Z,83.60
2018-05-17T17:53:29.075Z,83.70
2018-05-17T17:55:56.551Z,84.00
2018-05-17T17:58:24.084Z,84.10
2018-05-17T18:00:51.538Z,84.80
2018-05-17T18:03:19.016Z,84.90
2018-05-17T18:05:46.515Z,85.00
2018-05-17T18:08:14.825Z,85.30
2018-05-17T18:10:42.305Z,85.30
2018-05-17T18:13:09.848Z,85.70
2018-05-17T18:15:37.329Z,85.90
2018-05-17T18:18:05.627Z,85.90
2018-05-17T18:20:34.043Z,86.00
2018-05-17T18:23:01.576Z,86.20
2018-05-17T18:25:29.888Z,86.30
2018-05-17T18:27:57.371Z,86.30
2018-05-17T18:30:24.910Z,86.40
2018-05-17T18:32:52.424Z,86.40
2018-05-17T18:35:20.651Z,86.60
2018-05-17T18:37:48.147Z,86.80
2018-05-17T18:40:15.629Z,86.80
2018-05-17T18:42:43.929Z,87.10
2018-05-17T18:45:11.440Z,87.10
2018-05-17T18:47:38.930Z,87.40
2018-05-17T18:50:06.406Z,87.60
2018-05-17T18:52:33.894Z,87.50
2018-05-17T18:55:01.373Z,87.70
2018-05-17T18:57:29.636Z,88.00
2018-05-17T18:59:57.115Z,87.90
2018-05-17T19:02:25.530Z,88.00
2018-05-17T19:04:53.171Z,87.90
2018-05-17T19:07:20.664Z,88.10
2018-05-17T19:09:48.155Z,88.20
2018-05-17T19:12:15.724Z,88.70
2018-05-17T19:14:43.292Z,88.80
2018-05-17T19:17:10.783Z,89.60
2018-05-17T19:19:38.251Z,89.10
2018-05-17T19:22:05.755Z,89.10
2018-05-17T19:24:33.357Z,89.40
2018-05-17T19:27:00.950Z,89.70
2018-05-17T19:29:28.430Z,89.70
2018-05-17T19:31:55.911Z,89.80
2018-05-17T19:34:24.166Z,90.00
2018-05-17T19:36:51.735Z,90.00
2018-05-17T19:39:20.007Z,89.90
2018-05-17T19:41:48.265Z,90.00
2018-05-17T19:44:15.778Z,90.00
2018-05-17T19:46:43.238Z,90.10
2018-05-17T19:49:10.719Z,89.80
2018-05-17T19:51:38.251Z,90.00
2018-05-17T19:54:05.808Z,90.00
2018-05-17T19:56:34.395Z,90.00
2018-05-17T19:59:01.953Z,90.00
2018-05-17T20:01:29.424Z,90.50
2018-05-17T20:03:56.942Z,90.00
2018-05-17T20:06:25.178Z,90.20
2018-05-17T20:08:52.671Z,90.10
2018-05-17T20:11:20.244Z,90.10
2018-05-17T20:13:47.751Z,90.10
2018-05-17T20:16:15.241Z,90.20
2018-05-17T20:18:43.607Z,90.30
2018-05-17T20:21:11.181Z,90.30
2018-05-17T20:23:39.432Z,90.30
2018-05-17T20:26:06.936Z,90.30
2018-05-17T20:28:34.508Z,90.40
2018-05-17T20:31:02.037Z,90.40
2018-05-17T20:33:30.316Z,90.40
2018-05-17T20:35:58.662Z,90.30
2018-05-17T20:38:26.040Z,90.30
2018-05-17T20:40:54.319Z,90.40
2018-05-17T20:43:22.571Z,90.30
2018-05-17T20:45:50.053Z,90.30
2018-05-17T20:48:17.511Z,90.30
2018-05-17T20:50:45.773Z,90.30
2018-05-17T20:53:13.312Z,90.30
2018-05-17T20:55:40.862Z,90.30
2018-05-17T20:58:08.391Z,90.30
2018-05-17T21:00:36.034Z,90.70
2018-05-17T21:03:03.432Z,90.60
2018-05-17T21:05:30.972Z,90.40
2018-05-17T21:07:58.487Z,90.40
2018-05-17T21:10:25.984Z,90.30
2018-05-17T21:12:53.531Z,90.50
2018-05-17T21:15:21.771Z,90.80
2018-05-17T21:17:49.378Z,90.80
2018-05-17T21:20:16.869Z,90.50
2018-05-17T21:22:44.348Z,90.60
2018-05-17T21:25:11.823Z,90.70
2018-05-17T21:27:40.109Z,90.80
2018-05-17T21:30:07.592Z,90.80
2018-05-17T21:32:35.086Z,90.80
2018-05-17T21:35:02.589Z,90.80
2018-05-17T21:37:30.054Z,90.90
2018-05-17T21:39:57.521Z,91.10
2018-05-17T21:42:25.009Z,91.20
2018-05-17T21:44:52.484Z,91.10
2018-05-17T21:47:19.962Z,91.10
2018-05-17T21:49:48.216Z,91.30
2018-05-17T21:52:15.717Z,91.30
2018-05-17T21:54:43.175Z,91.40
2018-05-17T21:57:10.681Z,91.40
2018-05-17T21:59:38.139Z,91.40
2018-05-17T22:02:05.707Z,91.40
2018-05-17T22:04:34.088Z,91.50
2018-05-17T22:07:01.568Z,91.50
2018-05-17T22:09:29.949Z,91.70
2018-05-17T22:11:57.446Z,91.70
2018-05-17T22:14:25.059Z,91.80
2018-05-17T22:16:53.431Z,91.60
2018-05-17T22:19:21.663Z,92.00
2018-05-17T22:21:49.143Z,91.90
2018-05-17T22:24:16.616Z,91.90
2018-05-17T22:26:44.929Z,92.00
2018-05-17T22:29:12.778Z,91.90
2018-05-17T22:31:41.327Z,92.00
2018-05-17T22:34:09.576Z,92.20
2018-05-17T22:36:37.076Z,92.20
2018-05-17T22:39:05.307Z,92.30
2018-05-17T22:41:32.802Z,92.30
2018-05-17T22:44:00.271Z,92.40
2018-05-17T22:46:28.527Z,92.80
2018-05-17T22:48:55.999Z,92.80
2018-05-17T22:51:24.257Z,92.80
2018-05-17T22:53:52.503Z,93.40
2018-05-17T22:56:32.083Z,93.10
2018-05-17T22:59:00.402Z,93.20
2018-05-17T23:01:27.971Z,93.20
2018-05-17T23:03:55.468Z,93.30
2018-05-17T23:06:22.928Z,93.40
2018-05-17T23:08:50.420Z,93.50
2018-05-17T23:11:17.893Z,93.50
2018-05-17T23:13:45.387Z,93.80
2018-05-17T23:16:12.895Z,94.00
2018-05-17T23:18:40.403Z,93.90
2018-05-17T23:21:07.919Z,94.20
2018-05-17T23:23:35.530Z,94.20
2018-05-17T23:26:03.759Z,94.40
2018-05-17T23:28:31.244Z,94.30
2018-05-17T23:30:58.708Z,94.40
2018-05-17T23:33:26.226Z,94.50
2018-05-17T23:35:53.743Z,95.10
2018-05-17T23:38:21.231Z,94.70
2018-05-17T23:41:12.318Z,94.80
2018-05-17T23:43:39.913Z,94.90
2018-05-17T23:46:07.378Z,94.90
2018-05-17T23:48:34.935Z,95.00
2018-05-17T23:51:02.491Z,95.10
2018-05-17T23:53:29.996Z,95.20
2018-05-17T23:55:57.455Z,95.10
2018-05-17T23:58:25.020Z,95.40
